Independence — WDF3297 — position and weather

sailwx.info

Track history (hours):
 
Tides and Currents Weather Stations Pressure Air Temp Water Temp Dewpoint Dewpoint Depression Visibility Wind Speed Wind Dir Waves Ship Positions

Independence

Owner: American Cruise Lines Inc., Delmar, DE. More information available from US FCC via Universal Licensing System and Coast Guard Vessel Documentation Center.

Last reported at 2017-Apr-28 12:55 UTC. Time now 2017-Apr-30 14:53 UTC.
Position N 32°39' W 080°15'.

Length 65 m; draft 2.5 m.

Type: Passenger vessel. MMSI: 367438210.

Date/timePositionNaut miles runAvg speedWind from/ knotsBaromVisibWave heightAir tempDewpointWater temp
2017-Apr-28 12:55N 32°39' W 080°15'3 6.1
2017-Apr-28 12:26N 32°38' W 080°19'3 4.7
2017-Apr-28 11:50N 32°37' W 080°22'3 5.3
2017-Apr-28 11:20N 32°35' W 080°24'8 7.4
2017-Apr-28 10:18N 32°28' W 080°25'5 8.3
2017-Apr-28 09:44N 32°30' W 080°30'10 0.4
2017-Apr-27 11:54N 32°26' W 080°40'0 0.0
2017-Apr-27 11:30N 32°26' W 080°40'0 0.0
2017-Apr-27 10:54N 32°26' W 080°40'0 0.0
2017-Apr-27 10:30N 32°26' W 080°40'0 0.0
2017-Apr-27 09:59N 32°26' W 080°40'14 1.1
2017-Apr-26 21:36N 32°13' W 080°47'211.2
2017-Apr-26 21:27N 32°11' W 080°47'3 7.1
2017-Apr-26 21:00N 32°08' W 080°49'0 0.0
2017-Apr-26 20:30N 32°08' W 080°49'0 0.0
2017-Apr-26 19:54N 32°08' W 080°49'0 0.0
2017-Apr-26 19:30N 32°08' W 080°49'0 0.1
2017-Apr-26 18:44N 32°08' W 080°49'0 0.0
2017-Apr-26 18:30N 32°08' W 080°49'0 0.0
2017-Apr-26 15:10N 32°08' W 080°49'1 4.0
2017-Apr-26 14:59N 32°09' W 080°50'6 6.4
2017-Apr-26 14:00N 32°05' W 080°56'4 7.4
2017-Apr-26 13:30N 32°06' W 081°00'4 8.5
2017-Apr-26 12:59N 32°05' W 081°05'0 0.7
2017-Apr-26 12:28N 32°05' W 081°06'0 0.0
2017-Apr-26 11:58N 32°05' W 081°06'0 0.0
2017-Apr-26 11:16N 32°05' W 081°06'0 0.0
2017-Apr-26 10:46N 32°05' W 081°06'0 0.0
2017-Apr-26 10:16N 32°05' W 081°06'0 0.0
2017-Apr-26 09:52N 32°05' W 081°06'0 0.0
2017-Apr-26 09:28N 32°05' W 081°06'0 0.0
2017-Apr-26 08:52N 32°05' W 081°06'0 0.0
2017-Apr-26 08:16N 32°05' W 081°06'0 0.0
2017-Apr-26 07:52N 32°05' W 081°06'0 0.0
2017-Apr-26 07:28N 32°05' W 081°06'0 0.0
2017-Apr-26 06:40N 32°05' W 081°06'0 0.0
2017-Apr-26 06:16N 32°05' W 081°06'0 0.0
2017-Apr-26 05:58N 32°05' W 081°06'0 0.0
2017-Apr-26 05:28N 32°05' W 081°06'0 0.0
2017-Apr-26 04:58N 32°05' W 081°06'0 0.0
2017-Apr-26 04:28N 32°05' W 081°06'0 0.0
2017-Apr-26 03:58N 32°05' W 081°06'0 0.0
2017-Apr-26 03:28N 32°05' W 081°06'0 0.0
2017-Apr-26 02:52N 32°05' W 081°06'0 0.0
2017-Apr-26 02:28N 32°05' W 081°06'0 0.0
2017-Apr-26 01:28N 32°05' W 081°06'0 0.0
2017-Apr-26 00:52N 32°05' W 081°06'0 0.0
2017-Apr-26 00:28N 32°05' W 081°06'0 0.0
2017-Apr-25 23:58N 32°05' W 081°06'0 0.0
2017-Apr-25 23:28N 32°05' W 081°06'0 0.0
2017-Apr-25 22:58N 32°05' W 081°06'0 0.0
2017-Apr-25 22:28N 32°05' W 081°06'0 0.0
2017-Apr-25 21:58N 32°05' W 081°06'0 0.0
2017-Apr-25 21:28N 32°05' W 081°06'0 0.0
2017-Apr-25 20:58N 32°05' W 081°06'0 0.0
2017-Apr-25 20:28N 32°05' W 081°06'0 0.0
2017-Apr-25 19:46N 32°05' W 081°06'0 0.0
2017-Apr-25 19:28N 32°05' W 081°06'0 0.0
2017-Apr-25 18:52N 32°05' W 081°06'0 0.0
2017-Apr-25 18:28N 32°05' W 081°06'0 0.0
2017-Apr-25 17:58N 32°05' W 081°06'0 0.0
2017-Apr-25 16:34N 32°05' W 081°06'0 0.0
2017-Apr-25 16:10N 32°05' W 081°06'0 0.0
2017-Apr-25 15:46N 32°05' W 081°06'0 0.0
2017-Apr-25 15:28N 32°05' W 081°06'0 0.0
2017-Apr-25 14:46N 32°05' W 081°06'0 0.0
2017-Apr-25 14:10N 32°05' W 081°06'0 0.0
2017-Apr-25 13:22N 32°05' W 081°06'0 0.0
2017-Apr-25 12:58N 32°05' W 081°06'0 0.0
2017-Apr-25 12:16N 32°05' W 081°06'0 0.0
2017-Apr-25 11:52N 32°05' W 081°06'0 0.0
2017-Apr-25 11:22N 32°05' W 081°06'0 0.0
2017-Apr-25 10:58N 32°05' W 081°06'0 0.0
2017-Apr-25 10:04N 32°05' W 081°06'0 0.0
2017-Apr-25 09:58N 32°05' W 081°06'0 0.0
2017-Apr-25 09:28N 32°05' W 081°06'0 0.0
2017-Apr-25 08:52N 32°05' W 081°06'0 0.0
2017-Apr-25 08:28N 32°05' W 081°06'0 0.0
2017-Apr-25 07:58N 32°05' W 081°06'0 0.0
2017-Apr-25 07:22N 32°05' W 081°06'0 0.0
2017-Apr-25 06:58N 32°05' W 081°06'0 0.0
2017-Apr-25 06:28N 32°05' W 081°06'0 0.0
2017-Apr-25 05:46N 32°05' W 081°06'0 0.0
2017-Apr-25 05:28N 32°05' W 081°06'0 0.0
2017-Apr-25 04:52N 32°05' W 081°06'0 0.0
2017-Apr-25 04:16N 32°05' W 081°06'0 0.0
2017-Apr-25 03:58N 32°05' W 081°06'0 0.0
2017-Apr-25 03:28N 32°05' W 081°06'0 0.0
2017-Apr-25 02:52N 32°05' W 081°06'0 0.0
2017-Apr-25 02:22N 32°05' W 081°06'0 0.0
2017-Apr-25 01:46N 32°05' W 081°06'0 0.0
2017-Apr-25 01:22N 32°05' W 081°06'0 0.5
2017-Apr-25 01:00N 32°05' W 081°05'4 8.9
2017-Apr-25 00:30N 32°06' W 081°00'2 3.5
2017-Apr-25 00:00N 32°04' W 081°01'3 5.9
2017-Apr-24 23:30N 32°02' W 081°03'3 5.6
2017-Apr-24 23:00N 31°60' W 081°01'3 5.4
2017-Apr-24 22:30N 31°58' W 081°04'3 5.9
2017-Apr-24 22:00N 31°55' W 081°06'4 7.5
2017-Apr-24 21:26N 31°51' W 081°06'3 7.1
2017-Apr-24 20:57N 31°50' W 081°09'  
2017-Apr-19 07:57N 31°51' W 081°08'3 5.9
2017-Apr-19 07:24N 31°53' W 081°05'2 5.3
2017-Apr-19 07:00N 31°55' W 081°05'3 6.5
2017-Apr-19 06:30N 31°58' W 081°03'3 6.1
2017-Apr-19 06:00N 32°01' W 081°01'2 4.8
2017-Apr-19 05:30N 32°03' W 081°02'3 5.3
2017-Apr-19 05:00N 32°04' W 080°59'3 5.1
2017-Apr-19 04:29N 32°05' W 081°02'3 5.7
2017-Apr-19 03:56N 32°05' W 081°06'0 0.0
2017-Apr-19 03:26N 32°05' W 081°06'0 0.0
2017-Apr-19 02:38N 32°05' W 081°06'0 0.0
2017-Apr-19 02:26N 32°05' W 081°06'0 0.0
2017-Apr-19 01:50N 32°05' W 081°06'0 0.0
2017-Apr-19 01:26N 32°05' W 081°06'0 0.0
2017-Apr-19 00:56N 32°05' W 081°06'0 0.0
2017-Apr-19 00:20N 32°05' W 081°06'0 0.0
2017-Apr-18 23:50N 32°05' W 081°06'0 0.0
2017-Apr-18 23:26N 32°05' W 081°06'0 0.0
2017-Apr-18 22:14N 32°05' W 081°06'0 0.0
2017-Apr-18 21:56N 32°05' W 081°06'0 0.0
2017-Apr-18 21:20N 32°05' W 081°06'0 0.0
2017-Apr-18 20:56N 32°05' W 081°06'0 0.0
2017-Apr-18 20:26N 32°05' W 081°06'0 0.0
2017-Apr-18 19:56N 32°05' W 081°06'0 0.0
2017-Apr-18 19:26N 32°05' W 081°06'0 0.0
2017-Apr-18 18:56N 32°05' W 081°06'0 0.0
2017-Apr-18 17:56N 32°05' W 081°06'0 0.0
2017-Apr-18 17:20N 32°05' W 081°06'0 0.0
2017-Apr-18 15:26N 32°05' W 081°06'0 0.0
2017-Apr-18 14:38N 32°05' W 081°06'0 0.0
2017-Apr-18 14:14N 32°05' W 081°06'  
Track history (hours):
 
Tides and Currents Weather Stations Pressure Air Temp Water Temp Dewpoint Dewpoint Depression Visibility Wind Speed Wind Dir Waves Ship Positions

Independence

Owner: American Cruise Lines Inc., Delmar, DE. More information available from US FCC via Universal Licensing System and Coast Guard Vessel Documentation Center.

Last reported at 2017-Apr-28 12:55 UTC. Time now 2017-Apr-30 14:53 UTC.
Position N 32°39' W 080°15'.

Length 65 m; draft 2.5 m.

Type: Passenger vessel. MMSI: 367438210.

Date/timePositionNaut miles runAvg speedWind from/ knotsBaromVisibWave heightAir tempDewpointWater temp
2017-Apr-28 12:55N 32°39' W 080°15'3 6.1
2017-Apr-28 12:26N 32°38' W 080°19'3 4.7
2017-Apr-28 11:50N 32°37' W 080°22'3 5.3
2017-Apr-28 11:20N 32°35' W 080°24'8 7.4
2017-Apr-28 10:18N 32°28' W 080°25'5 8.3
2017-Apr-28 09:44N 32°30' W 080°30'10 0.4
2017-Apr-27 11:54N 32°26' W 080°40'0 0.0
2017-Apr-27 11:30N 32°26' W 080°40'0 0.0
2017-Apr-27 10:54N 32°26' W 080°40'0 0.0
2017-Apr-27 10:30N 32°26' W 080°40'0 0.0
2017-Apr-27 09:59N 32°26' W 080°40'14 1.1
2017-Apr-26 21:36N 32°13' W 080°47'211.2
2017-Apr-26 21:27N 32°11' W 080°47'3 7.1
2017-Apr-26 21:00N 32°08' W 080°49'0 0.0
2017-Apr-26 20:30N 32°08' W 080°49'0 0.0
2017-Apr-26 19:54N 32°08' W 080°49'0 0.0
2017-Apr-26 19:30N 32°08' W 080°49'0 0.1
2017-Apr-26 18:44N 32°08' W 080°49'0 0.0
2017-Apr-26 18:30N 32°08' W 080°49'0 0.0
2017-Apr-26 15:10N 32°08' W 080°49'1 4.0
2017-Apr-26 14:59N 32°09' W 080°50'6 6.4
2017-Apr-26 14:00N 32°05' W 080°56'4 7.4
2017-Apr-26 13:30N 32°06' W 081°00'4 8.5
2017-Apr-26 12:59N 32°05' W 081°05'0 0.7
2017-Apr-26 12:28N 32°05' W 081°06'0 0.0
2017-Apr-26 11:58N 32°05' W 081°06'0 0.0
2017-Apr-26 11:16N 32°05' W 081°06'0 0.0
2017-Apr-26 10:46N 32°05' W 081°06'0 0.0
2017-Apr-26 10:16N 32°05' W 081°06'0 0.0
2017-Apr-26 09:52N 32°05' W 081°06'0 0.0
2017-Apr-26 09:28N 32°05' W 081°06'0 0.0
2017-Apr-26 08:52N 32°05' W 081°06'0 0.0
2017-Apr-26 08:16N 32°05' W 081°06'0 0.0
2017-Apr-26 07:52N 32°05' W 081°06'0 0.0
2017-Apr-26 07:28N 32°05' W 081°06'0 0.0
2017-Apr-26 06:40N 32°05' W 081°06'0 0.0
2017-Apr-26 06:16N 32°05' W 081°06'0 0.0
2017-Apr-26 05:58N 32°05' W 081°06'0 0.0
2017-Apr-26 05:28N 32°05' W 081°06'0 0.0
2017-Apr-26 04:58N 32°05' W 081°06'0 0.0
2017-Apr-26 04:28N 32°05' W 081°06'0 0.0
2017-Apr-26 03:58N 32°05' W 081°06'0 0.0
2017-Apr-26 03:28N 32°05' W 081°06'0 0.0
2017-Apr-26 02:52N 32°05' W 081°06'0 0.0
2017-Apr-26 02:28N 32°05' W 081°06'0 0.0
2017-Apr-26 01:28N 32°05' W 081°06'0 0.0
2017-Apr-26 00:52N 32°05' W 081°06'0 0.0
2017-Apr-26 00:28N 32°05' W 081°06'0 0.0
2017-Apr-25 23:58N 32°05' W 081°06'0 0.0
2017-Apr-25 23:28N 32°05' W 081°06'0 0.0
2017-Apr-25 22:58N 32°05' W 081°06'0 0.0
2017-Apr-25 22:28N 32°05' W 081°06'0 0.0
2017-Apr-25 21:58N 32°05' W 081°06'0 0.0
2017-Apr-25 21:28N 32°05' W 081°06'0 0.0
2017-Apr-25 20:58N 32°05' W 081°06'0 0.0
2017-Apr-25 20:28N 32°05' W 081°06'0 0.0
2017-Apr-25 19:46N 32°05' W 081°06'0 0.0
2017-Apr-25 19:28N 32°05' W 081°06'0 0.0
2017-Apr-25 18:52N 32°05' W 081°06'0 0.0
2017-Apr-25 18:28N 32°05' W 081°06'0 0.0
2017-Apr-25 17:58N 32°05' W 081°06'0 0.0
2017-Apr-25 16:34N 32°05' W 081°06'0 0.0
2017-Apr-25 16:10N 32°05' W 081°06'0 0.0
2017-Apr-25 15:46N 32°05' W 081°06'0 0.0
2017-Apr-25 15:28N 32°05' W 081°06'0 0.0
2017-Apr-25 14:46N 32°05' W 081°06'0 0.0
2017-Apr-25 14:10N 32°05' W 081°06'0 0.0
2017-Apr-25 13:22N 32°05' W 081°06'0 0.0
2017-Apr-25 12:58N 32°05' W 081°06'0 0.0
2017-Apr-25 12:16N 32°05' W 081°06'0 0.0
2017-Apr-25 11:52N 32°05' W 081°06'0 0.0
2017-Apr-25 11:22N 32°05' W 081°06'0 0.0
2017-Apr-25 10:58N 32°05' W 081°06'0 0.0
2017-Apr-25 10:04N 32°05' W 081°06'0 0.0
2017-Apr-25 09:58N 32°05' W 081°06'0 0.0
2017-Apr-25 09:28N 32°05' W 081°06'0 0.0
2017-Apr-25 08:52N 32°05' W 081°06'0 0.0
2017-Apr-25 08:28N 32°05' W 081°06'0 0.0
2017-Apr-25 07:58N 32°05' W 081°06'0 0.0
2017-Apr-25 07:22N 32°05' W 081°06'0 0.0
2017-Apr-25 06:58N 32°05' W 081°06'0 0.0
2017-Apr-25 06:28N 32°05' W 081°06'0 0.0
2017-Apr-25 05:46N 32°05' W 081°06'0 0.0
2017-Apr-25 05:28N 32°05' W 081°06'0 0.0
2017-Apr-25 04:52N 32°05' W 081°06'0 0.0
2017-Apr-25 04:16N 32°05' W 081°06'0 0.0
2017-Apr-25 03:58N 32°05' W 081°06'0 0.0
2017-Apr-25 03:28N 32°05' W 081°06'0 0.0
2017-Apr-25 02:52N 32°05' W 081°06'0 0.0
2017-Apr-25 02:22N 32°05' W 081°06'0 0.0
2017-Apr-25 01:46N 32°05' W 081°06'0 0.0
2017-Apr-25 01:22N 32°05' W 081°06'0 0.5
2017-Apr-25 01:00N 32°05' W 081°05'4 8.9
2017-Apr-25 00:30N 32°06' W 081°00'2 3.5
2017-Apr-25 00:00N 32°04' W 081°01'3 5.9
2017-Apr-24 23:30N 32°02' W 081°03'3 5.6
2017-Apr-24 23:00N 31°60' W 081°01'3 5.4
2017-Apr-24 22:30N 31°58' W 081°04'3 5.9
2017-Apr-24 22:00N 31°55' W 081°06'4 7.5
2017-Apr-24 21:26N 31°51' W 081°06'3 7.1
2017-Apr-24 20:57N 31°50' W 081°09'  
2017-Apr-19 07:57N 31°51' W 081°08'3 5.9
2017-Apr-19 07:24N 31°53' W 081°05'2 5.3
2017-Apr-19 07:00N 31°55' W 081°05'3 6.5
2017-Apr-19 06:30N 31°58' W 081°03'3 6.1
2017-Apr-19 06:00N 32°01' W 081°01'2 4.8
2017-Apr-19 05:30N 32°03' W 081°02'3 5.3
2017-Apr-19 05:00N 32°04' W 080°59'3 5.1
2017-Apr-19 04:29N 32°05' W 081°02'3 5.7
2017-Apr-19 03:56N 32°05' W 081°06'0 0.0
2017-Apr-19 03:26N 32°05' W 081°06'0 0.0
2017-Apr-19 02:38N 32°05' W 081°06'0 0.0
2017-Apr-19 02:26N 32°05' W 081°06'0 0.0
2017-Apr-19 01:50N 32°05' W 081°06'0 0.0
2017-Apr-19 01:26N 32°05' W 081°06'0 0.0
2017-Apr-19 00:56N 32°05' W 081°06'0 0.0
2017-Apr-19 00:20N 32°05' W 081°06'0 0.0
2017-Apr-18 23:50N 32°05' W 081°06'0 0.0
2017-Apr-18 23:26N 32°05' W 081°06'0 0.0
2017-Apr-18 22:14N 32°05' W 081°06'0 0.0
2017-Apr-18 21:56N 32°05' W 081°06'0 0.0
2017-Apr-18 21:20N 32°05' W 081°06'0 0.0
2017-Apr-18 20:56N 32°05' W 081°06'0 0.0
2017-Apr-18 20:26N 32°05' W 081°06'0 0.0
2017-Apr-18 19:56N 32°05' W 081°06'0 0.0
2017-Apr-18 19:26N 32°05' W 081°06'0 0.0
2017-Apr-18 18:56N 32°05' W 081°06'0 0.0
2017-Apr-18 17:56N 32°05' W 081°06'0 0.0
2017-Apr-18 17:20N 32°05' W 081°06'0 0.0
2017-Apr-18 15:26N 32°05' W 081°06'0 0.0
2017-Apr-18 14:38N 32°05' W 081°06'0 0.0
2017-Apr-18 14:14N 32°05' W 081°06'  

Dump ship's entire track history